Time;durP1;ratioP1;P1;durP2;ratioP2;P2;SDS_P1;SDS_P2;PMS_P1;PMS_P2;Temp;Humidity;BMP_temperature;BMP_pressure;BME280_temperature;BME280_humidity;BME280_pressure;Samples;Min_cycle;Max_cycle;Signal;HPM_P1;HPM_P2
2023/04/28 00:01:57;;;;;;;13.20;5.10;;;3.10;99.90;;;;;;4367374;28;657063;-72
2023/04/28 00:04:46;;;;;;;9.70;4.30;;;3.10;99.90;;;;;;4390360;28;656739;-71
2023/04/28 00:07:33;;;;;;;10.43;3.87;;;3.10;99.90;;;;;;4366870;28;656264;-72
2023/04/28 00:10:20;;;;;;;9.27;3.80;;;3.10;99.90;;;;;;4358704;28;656987;-72
2023/04/28 00:13:07;;;;;;;8.57;4.30;;;3.00;99.90;;;;;;4385506;28;656661;-72
2023/04/28 00:15:55;;;;;;;24.83;9.50;;;3.00;99.90;;;;;;4387703;28;655328;-72
2023/04/28 00:18:43;;;;;;;175.53;63.70;;;3.00;99.90;;;;;;4395567;28;657310;-72
2023/04/28 00:21:32;;;;;;;256.73;94.60;;;3.00;99.90;;;;;;4378939;28;658962;-72
2023/04/28 00:24:19;;;;;;;96.03;39.93;;;3.00;99.90;;;;;;4389596;28;659718;-71
2023/04/28 00:27:06;;;;;;;66.60;26.57;;;3.10;99.90;;;;;;4367257;28;657347;-72
2023/04/28 00:29:54;;;;;;;69.07;29.27;;;3.10;99.90;;;;;;4382066;28;658235;-72
2023/04/28 00:32:41;;;;;;;31.30;13.10;;;2.90;99.90;;;;;;4372016;28;657806;-72
2023/04/28 00:35:28;;;;;;;36.33;14.77;;;3.00;99.90;;;;;;4390486;28;658549;-72
2023/04/28 00:38:17;;;;;;;43.00;18.07;;;2.90;99.90;;;;;;4370298;28;658037;-72
2023/04/28 00:41:04;;;;;;;19.80;8.73;;;2.90;99.90;;;;;;4387072;28;657847;-72
2023/04/28 00:43:51;;;;;;;25.50;10.13;;;2.90;99.90;;;;;;4365167;28;656996;-72
2023/04/28 00:46:39;;;;;;;20.50;9.20;;;2.90;99.90;;;;;;4380618;28;657373;-72
2023/04/28 00:49:26;;;;;;;19.13;7.77;;;2.80;99.90;;;;;;4371359;28;656388;-72
2023/04/28 00:52:13;;;;;;;14.93;7.20;;;2.80;99.90;;;;;;4391845;28;657712;-71
2023/04/28 00:55:02;;;;;;;14.27;6.43;;;2.90;99.90;;;;;;4364632;28;656613;-72
2023/04/28 00:57:49;;;;;;;15.90;7.77;;;2.90;99.90;;;;;;4388049;28;656358;-71
2023/04/28 01:00:36;;;;;;;22.73;11.23;;;2.90;99.90;;;;;;4364414;28;656711;-71
2023/04/28 01:03:24;;;;;;;27.30;11.77;;;2.90;99.90;;;;;;4384763;28;659155;-71
2023/04/28 01:06:11;;;;;;;27.00;12.63;;;2.90;99.90;;;;;;4365197;28;657714;-71
2023/04/28 01:08:58;;;;;;;79.50;32.83;;;2.90;99.90;;;;;;4387810;28;658477;-71
2023/04/28 01:11:47;;;;;;;49.90;20.45;;;2.80;99.90;;;;;;4368168;28;657629;-71
2023/04/28 01:14:34;;;;;;;42.87;19.17;;;2.80;99.90;;;;;;4391923;28;657542;-72
2023/04/28 01:17:21;;;;;;;44.17;20.38;;;2.80;99.90;;;;;;4372886;28;657713;-72
2023/04/28 01:20:10;;;;;;;48.23;23.47;;;2.80;99.90;;;;;;4381584;28;658824;-72
2023/04/28 01:22:57;;;;;;;42.93;20.83;;;2.80;99.90;;;;;;4362955;28;659021;-72
2023/04/28 01:25:45;;;;;;;46.93;24.47;;;2.80;99.90;;;;;;4389661;28;656838;-72
2023/04/28 01:28:33;;;;;;;50.77;25.17;;;2.70;99.90;;;;;;4359730;28;658655;-72
2023/04/28 01:31:20;;;;;;;58.87;29.80;;;2.70;99.90;;;;;;4375649;28;657818;-72
2023/04/28 01:34:07;;;;;;;49.53;24.90;;;2.70;99.90;;;;;;4389100;28;660362;-72
2023/04/28 01:36:55;;;;;;;34.93;17.00;;;2.70;99.90;;;;;;4382041;28;657454;-72
2023/04/28 01:39:42;;;;;;;31.33;14.30;;;2.70;99.90;;;;;;4391686;28;658355;-72
2023/04/28 01:42:32;;;;;;;28.80;13.03;;;2.60;99.90;;;;;;4387255;28;660377;-72
2023/04/28 01:45:19;;;;;;;21.37;8.30;;;2.60;99.90;;;;;;4387985;28;657672;-72
2023/04/28 01:48:06;;;;;;;17.20;7.90;;;2.60;99.90;;;;;;4365613;28;656816;-72
2023/04/28 01:50:53;;;;;;;22.93;8.50;;;2.50;99.90;;;;;;4391312;28;657010;-72
2023/04/28 01:53:41;;;;;;;21.30;8.03;;;2.50;99.90;;;;;;4368014;28;659667;-72
2023/04/28 01:56:28;;;;;;;17.57;8.43;;;2.50;99.90;;;;;;4390370;28;656554;-72
2023/04/28 01:59:17;;;;;;;18.83;8.53;;;2.50;99.90;;;;;;4369537;28;656631;-72
2023/04/28 02:02:04;;;;;;;14.80;7.90;;;2.40;99.90;;;;;;4388395;28;656573;-72
2023/04/28 02:04:52;;;;;;;15.87;7.37;;;2.30;99.90;;;;;;4368226;28;657129;-72
2023/04/28 02:07:39;;;;;;;14.07;6.90;;;2.30;99.90;;;;;;4388304;28;656342;-72
2023/04/28 02:10:26;;;;;;;16.57;7.83;;;2.20;99.90;;;;;;4360603;28;656816;-72
2023/04/28 02:13:13;;;;;;;17.63;7.40;;;2.20;99.90;;;;;;4386807;28;657493;-72
2023/04/28 02:16:02;;;;;;;17.57;8.13;;;2.10;99.90;;;;;;4366912;28;656748;-72
2023/04/28 02:18:49;;;;;;;18.33;8.40;;;2.00;99.90;;;;;;4325234;28;656145;-72
2023/04/28 02:21:37;;;;;;;14.63;7.33;;;1.90;99.90;;;;;;4192955;28;657413;-72
2023/04/28 02:24:24;;;;;;;15.70;8.10;;;1.90;99.90;;;;;;4217974;28;655810;-72
2023/04/28 02:27:12;;;;;;;19.13;8.60;;;1.80;99.90;;;;;;4360726;28;656491;-72
2023/04/28 02:29:59;;;;;;;17.37;8.70;;;1.80;99.90;;;;;;4382692;28;656211;-71
2023/04/28 02:32:48;;;;;;;22.00;9.07;;;1.70;99.90;;;;;;4364110;28;656480;-72
2023/04/28 02:35:35;;;;;;;22.20;8.45;;;1.60;99.90;;;;;;4369982;28;657205;-72
2023/04/28 02:38:23;;;;;;;21.23;8.83;;;1.60;99.90;;;;;;4383382;28;658350;-72
2023/04/28 02:41:10;;;;;;;16.30;9.07;;;1.50;99.90;;;;;;4377959;28;657297;-72
2023/04/28 02:43:57;;;;;;;21.37;9.60;;;1.50;99.90;;;;;;4387275;28;656365;-71
2023/04/28 02:46:45;;;;;;;19.10;9.47;;;1.40;99.90;;;;;;4386218;28;656892;-72
2023/04/28 02:49:33;;;;;;;23.63;9.87;;;1.30;99.90;;;;;;4360505;28;658423;-72
2023/04/28 02:52:20;;;;;;;24.10;9.57;;;1.30;99.90;;;;;;4367398;28;656704;-72
2023/04/28 02:55:08;;;;;;;23.93;10.80;;;1.20;99.90;;;;;;4387538;28;657192;-72
2023/04/28 02:57:55;;;;;;;18.87;10.07;;;1.10;99.90;;;;;;4367264;28;658106;-72
2023/04/28 03:00:43;;;;;;;20.80;9.97;;;1.00;99.90;;;;;;4384967;28;658340;-72
2023/04/28 03:03:30;;;;;;;20.47;9.57;;;1.00;99.90;;;;;;4372749;28;657517;-72
2023/04/28 03:06:19;;;;;;;23.83;10.47;;;0.90;99.90;;;;;;4389481;28;656385;-72
2023/04/28 03:09:06;;;;;;;18.60;9.37;;;0.90;99.90;;;;;;4364926;28;657870;-71
2023/04/28 03:11:53;;;;;;;28.20;11.77;;;0.80;99.90;;;;;;4386012;28;656874;-72
2023/04/28 03:14:41;;;;;;;55.23;19.30;;;0.80;99.90;;;;;;4362539;28;657901;-72
2023/04/28 03:17:28;;;;;;;158.93;43.40;;;0.80;99.90;;;;;;4390314;28;658015;-72
2023/04/28 03:20:15;;;;;;;148.80;41.43;;;0.70;99.90;;;;;;4365128;28;658593;-71
2023/04/28 03:23:04;;;;;;;126.63;37.43;;;0.70;99.90;;;;;;4376464;28;659799;-72
2023/04/28 03:25:51;;;;;;;113.17;35.37;;;0.60;99.90;;;;;;4358528;28;658909;-71
2023/04/28 03:28:38;;;;;;;56.80;20.40;;;0.70;99.90;;;;;;4379256;28;659553;-72
2023/04/28 03:31:25;;;;;;;72.20;27.03;;;0.60;99.90;;;;;;4362875;28;658519;-71
2023/04/28 03:34:13;;;;;;;59.40;21.90;;;0.60;99.90;;;;;;4385528;28;659050;-72
2023/04/28 03:37:00;;;;;;;64.05;25.38;;;0.60;99.90;;;;;;4362808;28;658020;-72
2023/04/28 03:39:49;;;;;;;59.53;24.23;;;0.60;99.90;;;;;;4384477;28;659262;-72
2023/04/28 03:42:36;;;;;;;54.77;24.30;;;0.60;99.90;;;;;;4367981;28;657320;-72
2023/04/28 03:45:23;;;;;;;44.60;18.40;;;0.50;99.90;;;;;;4384748;28;659068;-72
2023/04/28 03:48:10;;;;;;;29.73;14.10;;;0.60;99.90;;;;;;4361205;28;657737;-72
2023/04/28 03:50:58;;;;;;;39.97;16.70;;;0.60;99.90;;;;;;4385741;28;658097;-72
2023/04/28 03:53:45;;;;;;;50.75;19.52;;;0.60;99.90;;;;;;4366462;28;659054;-73
2023/04/28 03:56:35;;;;;;;38.63;17.53;;;0.60;99.90;;;;;;4391692;28;657447;-72
2023/04/28 03:59:22;;;;;;;38.87;18.77;;;0.60;99.90;;;;;;4360262;28;658694;-72
2023/04/28 04:02:10;;;;;;;44.27;20.50;;;0.70;99.90;;;;;;4382069;28;657766;-72
2023/04/28 04:04:57;;;;;;;42.73;17.93;;;0.60;99.90;;;;;;4384074;28;658460;-72
2023/04/28 04:07:44;;;;;;;39.83;18.07;;;0.70;99.90;;;;;;4383823;28;657841;-72
2023/04/28 04:10:32;;;;;;;39.00;15.00;;;0.70;99.90;;;;;;4364713;28;658238;-72
2023/04/28 04:13:20;;;;;;;39.93;15.93;;;0.80;99.90;;;;;;4381289;28;657921;-72
2023/04/28 04:16:08;;;;;;;49.00;22.20;;;0.80;99.90;;;;;;4366316;28;659199;-72
2023/04/28 04:18:55;;;;;;;50.20;22.63;;;1.00;99.90;;;;;;4371949;28;657747;-72
2023/04/28 04:21:42;;;;;;;43.63;19.33;;;1.00;99.90;;;;;;4388531;28;658951;-72
2023/04/28 04:24:30;;;;;;;48.60;23.13;;;0.90;99.90;;;;;;4369834;28;657430;-72
2023/04/28 04:27:18;;;;;;;56.93;25.27;;;1.00;99.90;;;;;;4384604;28;658731;-72
2023/04/28 04:30:08;;;;;;;58.10;23.27;;;1.20;99.90;;;;;;4374089;28;657790;-72
2023/04/28 04:32:55;;;;;;;44.53;20.17;;;1.40;99.90;;;;;;4359323;28;657560;-72
2023/04/28 04:35:43;;;;;;;45.83;21.17;;;1.50;99.90;;;;;;4376091;28;661303;-73
2023/04/28 04:38:30;;;;;;;51.47;19.60;;;1.70;99.90;;;;;;4367450;28;657762;-73
2023/04/28 04:41:19;;;;;;;55.47;22.77;;;1.90;99.90;;;;;;4387041;28;658676;-72
2023/04/28 04:44:06;;;;;;;49.50;22.52;;;2.10;99.90;;;;;;4360328;28;658346;-73
2023/04/28 04:46:55;;;;;;;40.27;18.13;;;2.30;99.90;;;;;;4384206;28;658478;-72
2023/04/28 04:49:43;;;;;;;38.13;17.13;;;2.50;99.90;;;;;;4356578;28;658402;-72
2023/04/28 04:52:30;;;;;;;38.57;16.57;;;2.80;99.90;;;;;;4372674;28;657486;-72
2023/04/28 04:55:17;;;;;;;38.53;16.00;;;3.00;99.90;;;;;;4386423;28;657799;-73
2023/04/28 04:58:05;;;;;;;38.30;15.43;;;3.30;99.90;;;;;;4383963;28;657832;-72
2023/04/28 05:00:52;;;;;;;30.63;14.67;;;3.50;99.90;;;;;;4386100;28;658938;-72
2023/04/28 05:03:42;;;;;;;30.20;13.87;;;3.80;99.90;;;;;;4381567;28;658239;-73
2023/04/28 05:06:30;;;;;;;28.37;12.87;;;4.00;1.00;;;;;;4379911;28;657341;-72
2023/04/28 05:09:17;;;;;;;28.63;12.37;;;4.30;1.00;;;;;;4366234;28;657828;-72
2023/04/28 05:12:04;;;;;;;28.10;13.03;;;4.50;1.00;;;;;;4384614;28;656733;-73
2023/04/28 05:14:52;;;;;;;30.27;13.43;;;4.70;1.00;;;;;;4371685;28;656900;-71
2023/04/28 05:17:39;;;;;;;26.67;12.37;;;4.90;1.00;;;;;;4387473;28;656925;-71
2023/04/28 05:20:27;;;;;;;25.58;11.65;;;5.20;1.00;;;;;;4366246;28;657232;-71
2023/04/28 05:23:15;;;;;;;29.63;11.87;;;5.30;99.90;;;;;;4379187;28;656665;-72
2023/04/28 05:26:03;;;;;;;26.50;12.00;;;5.50;99.90;;;;;;4361053;28;658541;-71
2023/04/28 05:28:50;;;;;;;25.67;11.37;;;5.60;99.90;;;;;;4377674;28;658232;-71
2023/04/28 05:31:37;;;;;;;25.30;11.10;;;5.80;99.90;;;;;;4395870;28;657992;-71
2023/04/28 05:34:25;;;;;;;19.57;9.87;;;6.00;99.90;;;;;;4387046;28;658195;-71
2023/04/28 05:37:14;;;;;;;22.40;10.27;;;6.10;99.90;;;;;;4392106;28;658748;-71
2023/04/28 05:40:01;;;;;;;24.17;10.53;;;6.30;99.90;;;;;;4361745;28;657409;-71
2023/04/28 05:42:48;;;;;;;30.83;12.10;;;6.50;99.90;;;;;;4386622;28;658536;-71
2023/04/28 05:45:35;;;;;;;28.73;11.13;;;6.60;99.90;;;;;;4369407;28;657563;-71
2023/04/28 05:48:23;;;;;;;22.97;10.80;;;6.90;99.90;;;;;;4387508;28;658148;-72
2023/04/28 05:51:10;;;;;;;30.07;10.37;;;7.10;99.90;;;;;;4371321;28;657453;-72
2023/04/28 05:53:59;;;;;;;16.57;8.97;;;7.30;99.90;;;;;;4391642;28;657757;-71
2023/04/28 05:56:46;;;;;;;18.43;9.23;;;7.50;99.90;;;;;;4363474;28;656590;-73
2023/04/28 05:59:33;;;;;;;18.97;9.23;;;7.70;99.90;;;;;;4393488;28;657069;-71
2023/04/28 06:02:21;;;;;;;18.07;8.67;;;7.90;99.90;;;;;;4368450;28;657101;-72
2023/04/28 06:05:09;;;;;;;16.43;8.73;;;8.10;99.90;;;;;;4387326;28;657189;-72
2023/04/28 06:07:56;;;;;;;19.27;8.53;;;8.30;99.90;;;;;;4366327;28;656516;-72
2023/04/28 06:10:45;;;;;;;15.30;7.20;;;8.50;99.90;;;;;;4381948;28;657484;-72
2023/04/28 06:13:32;;;;;;;12.50;6.30;;;8.60;99.90;;;;;;4359649;28;657299;-72
2023/04/28 06:16:20;;;;;;;14.30;7.07;;;8.80;99.90;;;;;;4385781;28;656684;-72
2023/04/28 06:19:07;;;;;;;13.67;6.73;;;9.00;99.90;;;;;;4369379;28;658259;-72
2023/04/28 06:21:54;;;;;;;15.70;7.40;;;9.10;99.90;;;;;;4387247;28;656413;-72
2023/04/28 06:24:42;;;;;;;13.40;7.30;;;9.30;99.90;;;;;;4367120;28;656162;-72
2023/04/28 06:27:32;;;;;;;14.43;6.80;;;9.40;99.90;;;;;;4386716;28;656973;-72
2023/04/28 06:30:20;;;;;;;18.10;7.30;;;9.60;99.90;;;;;;4387185;28;657384;-71
2023/04/28 06:33:08;;;;;;;16.47;6.70;;;9.70;99.90;;;;;;4360499;28;657262;-72
2023/04/28 06:35:55;;;;;;;12.18;7.00;;;9.80;99.90;;;;;;4374827;28;656596;-72
2023/04/28 06:38:42;;;;;;;15.27;7.10;;;9.80;99.90;;;;;;4386785;28;656747;-72
2023/04/28 06:41:30;;;;;;;15.17;7.43;;;9.80;99.90;;;;;;4371377;28;657021;-73
2023/04/28 06:44:19;;;;;;;16.57;8.00;;;9.80;99.90;;;;;;4375427;28;657659;-73
2023/04/28 06:47:06;;;;;;;17.73;7.43;;;9.90;99.90;;;;;;4362389;28;656639;-72
2023/04/28 06:49:53;;;;;;;20.77;8.40;;;10.10;99.90;;;;;;4382463;28;658066;-72
2023/04/28 06:52:40;;;;;;;17.13;8.33;;;10.20;99.90;;;;;;4358635;28;657634;-73
2023/04/28 06:55:28;;;;;;;26.77;8.37;;;10.10;99.90;;;;;;4382371;28;658823;-71
2023/04/28 06:58:15;;;;;;;18.10;8.93;;;10.10;99.90;;;;;;4372845;28;657579;-72
2023/04/28 07:01:04;;;;;;;20.40;8.60;;;10.40;99.90;;;;;;4383419;28;658738;-73
2023/04/28 07:03:51;;;;;;;18.63;9.33;;;10.50;99.90;;;;;;4364110;28;657655;-72
2023/04/28 07:06:38;;;;;;;19.97;8.93;;;10.60;99.90;;;;;;4382446;28;657523;-72
2023/04/28 07:09:26;;;;;;;19.57;8.80;;;10.80;99.90;;;;;;4363264;28;658409;-72
2023/04/28 07:12:13;;;;;;;22.10;8.77;;;10.90;99.90;;;;;;4387123;28;658044;-72
2023/04/28 07:15:01;;;;;;;18.40;9.37;;;11.00;99.90;;;;;;4363892;28;658057;-73
2023/04/28 07:17:49;;;;;;;17.80;8.33;;;11.00;99.90;;;;;;4383501;28;658466;-72
2023/04/28 07:20:36;;;;;;;19.93;8.60;;;11.30;99.90;;;;;;4365123;28;657766;-72
2023/04/28 07:23:24;;;;;;;22.93;8.00;;;11.30;99.90;;;;;;4387650;28;658134;-74
2023/04/28 07:26:15;;;;;;;11.23;6.20;;;11.60;99.90;;;;;;4361919;28;658021;-73
2023/04/28 07:29:02;;;;;;;14.90;7.50;;;11.60;99.90;;;;;;4360844;28;659281;-73
2023/04/28 07:31:49;;;;;;;16.83;7.30;;;11.60;99.90;;;;;;4385566;28;658039;-73
2023/04/28 07:34:38;;;;;;;16.00;7.57;;;11.70;99.90;;;;;;4360126;28;658308;-73
2023/04/28 07:37:25;;;;;;;13.87;7.67;;;12.10;99.90;;;;;;4361715;28;657294;-72
2023/04/28 07:40:12;;;;;;;18.77;8.03;;;12.20;99.90;;;;;;4388610;28;658863;-73
2023/04/28 07:43:00;;;;;;;15.47;7.43;;;12.50;99.90;;;;;;4378584;28;658197;-74
2023/04/28 07:45:48;;;;;;;17.47;6.27;;;12.60;99.90;;;;;;4379094;28;657799;-74
2023/04/28 07:48:36;;;;;;;14.90;5.60;;;12.80;99.90;;;;;;4362893;28;658020;-73
2023/04/28 07:51:25;;;;;;;13.33;5.80;;;13.00;99.90;;;;;;4387884;28;658773;-73
2023/04/28 07:54:12;;;;;;;10.63;5.60;;;13.20;99.90;;;;;;4357674;28;658054;-73
2023/04/28 07:57:00;;;;;;;9.10;3.87;;;13.20;99.90;;;;;;4388147;28;657769;-73
2023/04/28 07:59:47;;;;;;;7.97;4.50;;;12.80;99.90;;;;;;4357893;28;657735;-73
2023/04/28 08:02:34;;;;;;;9.30;4.10;;;11.80;99.90;;;;;;4383212;28;656770;-73
2023/04/28 08:05:21;;;;;;;7.57;3.97;;;11.90;99.90;;;;;;4354714;28;656615;-73
2023/04/28 08:08:10;;;;;;;5.97;3.57;;;12.50;99.90;;;;;;4382667;28;656331;-73
2023/04/28 08:10:58;;;;;;;11.20;4.00;;;13.00;99.90;;;;;;4363347;28;657662;-73
2023/04/28 08:13:45;;;;;;;10.57;4.13;;;13.30;99.90;;;;;;4370593;28;658527;-73
2023/04/28 08:16:35;;;;;;;6.93;3.97;;;13.60;99.90;;;;;;4376498;28;659094;-73
2023/04/28 08:19:22;;;;;;;6.47;3.97;;;13.70;99.90;;;;;;4367710;28;656990;-73
2023/04/28 08:22:10;;;;;;;8.30;4.13;;;14.10;99.90;;;;;;4390374;28;656214;-73
2023/04/28 08:24:58;;;;;;;8.63;4.00;;;14.30;99.90;;;;;;4367159;28;658046;-73
2023/04/28 08:27:45;;;;;;;12.23;3.87;;;14.60;99.90;;;;;;4244210;28;656405;-74
2023/04/28 08:30:33;;;;;;;7.87;4.00;;;14.50;99.90;;;;;;4227624;28;658481;-73
2023/04/28 08:33:22;;;;;;;13.90;4.30;;;14.60;99.90;;;;;;4259377;28;656752;-73
2023/04/28 08:36:10;;;;;;;10.23;4.57;;;14.00;99.90;;;;;;4376190;28;657276;-74
2023/04/28 08:38:59;;;;;;;14.07;5.73;;;14.20;99.90;;;;;;4369140;28;658752;-73
2023/04/28 08:41:48;;;;;;;14.37;5.47;;;14.60;99.90;;;;;;4368460;28;656991;-72
2023/04/28 08:44:37;;;;;;;11.43;4.70;;;15.00;99.90;;;;;;4369795;28;658045;-73
2023/04/28 08:47:25;;;;;;;6.93;4.30;;;15.00;99.90;;;;;;4389379;28;657301;-73
2023/04/28 08:50:12;;;;;;;10.83;4.80;;;14.40;99.90;;;;;;4362545;28;656929;-73
2023/04/28 08:53:00;;;;;;;11.95;3.88;;;14.70;99.90;;;;;;4388439;28;658467;-73
2023/04/28 08:55:48;;;;;;;7.37;3.80;;;15.20;99.90;;;;;;4367467;28;658266;-73
2023/04/28 08:58:37;;;;;;;13.20;3.97;;;15.70;99.90;;;;;;4367982;28;656782;-73
2023/04/28 09:01:24;;;;;;;11.87;4.87;;;16.10;99.90;;;;;;4389210;28;657780;-74
2023/04/28 09:04:11;;;;;;;9.00;4.07;;;15.40;99.90;;;;;;4364761;28;657518;-73
2023/04/28 09:06:59;;;;;;;8.27;4.10;;;15.40;99.90;;;;;;4387847;28;656997;-73
2023/04/28 09:09:46;;;;;;;11.60;4.73;;;15.50;99.90;;;;;;4356164;28;656406;-72
2023/04/28 09:12:37;;;;;;;9.40;3.77;;;15.10;99.90;;;;;;4392214;28;657125;-73
2023/04/28 09:15:29;;;;;;;7.33;3.70;;;15.30;99.90;;;;;;4361768;28;657116;-73
2023/04/28 09:18:16;;;;;;;10.93;3.83;;;15.90;99.90;;;;;;4340929;28;657084;-73
2023/04/28 09:21:04;;;;;;;8.07;4.20;;;14.70;99.90;;;;;;4384454;28;658057;-73
2023/04/28 09:23:51;;;;;;;9.10;3.50;;;15.30;99.90;;;;;;4362092;28;657942;-72
2023/04/28 09:26:49;;;;;;;9.97;4.00;;;15.50;99.90;;;;;;4387823;28;657186;-73
2023/04/28 09:29:36;;;;;;;8.85;3.90;;;15.80;99.90;;;;;;4345234;28;657518;-73
2023/04/28 09:32:26;;;;;;;6.40;3.90;;;15.80;99.90;;;;;;4382239;28;657052;-73
2023/04/28 09:35:13;;;;;;;8.83;4.10;;;15.70;99.90;;;;;;4368208;28;656308;-73
2023/04/28 09:38:00;;;;;;;6.97;3.77;;;16.40;99.90;;;;;;4366704;28;657050;-72
2023/04/28 09:40:55;;;;;;;10.57;4.00;;;16.30;99.90;;;;;;4390414;28;656857;-74
2023/04/28 09:43:43;;;;;;;11.43;3.80;;;15.10;99.90;;;;;;4359265;28;657813;-73
2023/04/28 09:46:30;;;;;;;9.05;3.40;;;15.20;99.90;;;;;;4373348;28;657658;-74
2023/04/28 09:49:19;;;;;;;7.57;3.90;;;15.80;99.90;;;;;;4386976;28;658210;-71
2023/04/28 09:52:13;;;;;;;9.07;4.10;;;15.80;99.90;;;;;;4363146;28;660171;-74
2023/04/28 09:55:01;;;;;;;9.53;3.93;;;15.90;99.90;;;;;;4350503;28;657049;-72
2023/04/28 09:57:48;;;;;;;7.43;3.50;;;16.50;99.90;;;;;;4385307;28;657740;-72
2023/04/28 10:00:36;;;;;;;9.30;4.07;;;16.70;99.90;;;;;;4368516;28;656485;-72
2023/04/28 10:03:24;;;;;;;10.05;3.88;;;15.80;99.90;;;;;;4386708;28;657201;-72
2023/04/28 10:06:13;;;;;;;7.70;3.80;;;16.00;99.90;;;;;;4367951;28;657341;-73
2023/04/28 10:09:00;;;;;;;6.33;3.40;;;15.60;99.90;;;;;;4358560;28;656900;-73
2023/04/28 10:11:48;;;;;;;8.97;3.70;;;15.70;99.90;;;;;;4387413;28;658930;-73
2023/04/28 10:14:35;;;;;;;7.00;3.63;;;16.50;99.90;;;;;;4374531;28;656348;-73
2023/04/28 10:17:24;;;;;;;12.97;3.40;;;16.70;99.90;;;;;;4388009;28;656983;-71
2023/04/28 10:20:12;;;;;;;6.93;3.23;;;17.10;99.90;;;;;;4366223;28;657632;-72
2023/04/28 10:23:17;;;;;;;10.23;4.10;;;16.60;99.90;;;;;;4380679;28;656281;-72
2023/04/28 10:26:04;;;;;;;10.03;3.43;;;15.80;99.90;;;;;;4356605;28;658282;-73
2023/04/28 10:28:52;;;;;;;10.20;4.17;;;15.60;99.90;;;;;;4358690;28;658713;-72
2023/04/28 10:31:39;;;;;;;9.50;3.80;;;15.70;99.90;;;;;;4382524;28;658144;-73
2023/04/28 10:34:27;;;;;;;10.70;4.00;;;15.90;99.90;;;;;;4363823;28;657739;-72
2023/04/28 10:37:17;;;;;;;9.37;3.93;;;15.90;99.90;;;;;;4374518;28;657400;-73
2023/04/28 10:40:33;;;;;;;6.93;4.23;;;15.40;99.90;;;;;;4385067;28;656229;-73
2023/04/28 10:43:33;;;;;;;9.10;4.10;;;16.10;99.90;;;;;;4341374;28;657010;-72
2023/04/28 10:46:21;;;;;;;10.50;3.83;;;16.40;99.90;;;;;;4365371;28;657014;-73
2023/04/28 10:49:08;;;;;;;8.67;3.93;;;16.70;99.90;;;;;;4388493;28;658599;-73
2023/04/28 10:51:55;;;;;;;7.67;3.93;;;17.20;99.90;;;;;;4366151;28;657972;-72
2023/04/28 10:54:42;;;;;;;9.37;4.03;;;17.30;99.90;;;;;;4386488;28;656767;-71
2023/04/28 10:57:32;;;;;;;10.77;4.43;;;17.90;99.90;;;;;;4380118;28;656472;-73
2023/04/28 11:00:29;;;;;;;8.93;4.20;;;17.20;99.90;;;;;;4385545;28;657847;-72
2023/04/28 11:03:42;;;;;;;9.05;4.38;;;17.10;99.90;;;;;;4351029;28;656205;-72
2023/04/28 11:06:31;;;;;;;10.43;4.30;;;16.80;99.90;;;;;;4361803;28;657086;-72
2023/04/28 11:09:49;;;;;;;12.43;3.93;;;16.70;99.90;;;;;;4362896;28;658244;-72
2023/04/28 11:12:37;;;;;;;8.80;4.10;;;16.70;99.90;;;;;;4347975;28;657617;-72
2023/04/28 11:15:26;;;;;;;10.43;4.33;;;17.10;99.90;;;;;;4365768;28;656656;-73
2023/04/28 11:18:15;;;;;;;8.90;3.90;;;16.70;99.90;;;;;;4370030;28;657791;-73
2023/04/28 11:21:02;;;;;;;6.37;3.40;;;15.80;99.90;;;;;;4338821;28;658344;-73
2023/04/28 11:23:49;;;;;;;5.47;3.50;;;16.20;99.90;;;;;;4370380;28;656337;-72
2023/04/28 11:26:37;;;;;;;7.93;3.43;;;16.90;99.90;;;;;;4338032;28;656930;-72
2023/04/28 11:29:33;;;;;;;6.93;3.20;;;17.10;99.90;;;;;;4364116;28;657033;-72
2023/04/28 11:32:26;;;;;;;6.93;3.07;;;16.70;99.90;;;;;;4325645;28;656987;-73
2023/04/28 11:35:13;;;;;;;9.13;3.90;;;16.10;99.90;;;;;;4349951;28;657199;-73
2023/04/28 11:38:04;;;;;;;8.50;4.07;;;16.90;99.90;;;;;;4340667;28;656421;-73
2023/04/28 11:40:57;;;;;;;11.87;3.53;;;18.20;99.90;;;;;;4349611;28;656332;-73
2023/04/28 11:43:44;;;;;;;7.53;3.90;;;18.90;99.90;;;;;;4340721;28;657764;-73
2023/04/28 11:46:33;;;;;;;8.93;3.60;;;19.70;99.90;;;;;;4353174;28;656640;-73
2023/04/28 11:49:20;;;;;;;9.20;3.57;;;20.10;99.90;;;;;;4344239;28;656300;-73
2023/04/28 11:52:08;;;;;;;10.10;3.30;;;18.80;99.90;;;;;;4369733;28;657113;-74
2023/04/28 11:54:56;;;;;;;7.43;3.77;;;18.30;99.90;;;;;;4348482;28;657660;-73
2023/04/28 11:57:43;;;;;;;10.67;4.63;;;17.90;99.90;;;;;;4365132;28;657093;-73
2023/04/28 12:00:31;;;;;;;7.00;3.63;;;18.70;99.90;;;;;;4348847;28;657336;-73
2023/04/28 12:03:20;;;;;;;6.83;3.47;;;19.20;99.90;;;;;;4371979;28;656574;-73
2023/04/28 12:06:07;;;;;;;5.53;2.67;;;18.90;99.90;;;;;;4342687;28;657673;-73
2023/04/28 12:08:54;;;;;;;8.57;3.33;;;18.70;99.90;;;;;;4378163;28;656392;-73
2023/04/28 12:11:52;;;;;;;9.30;3.93;;;18.00;99.90;;;;;;4361747;28;656487;-73
2023/04/28 12:14:54;;;;;;;7.67;3.70;;;17.40;99.90;;;;;;4367788;28;658024;-73
2023/04/28 12:17:42;;;;;;;8.67;3.90;;;17.40;99.90;;;;;;4369680;28;657283;-73
2023/04/28 12:20:37;;;;;;;9.87;3.83;;;17.30;99.90;;;;;;4394584;28;657090;-72
2023/04/28 12:23:31;;;;;;;11.33;3.93;;;17.30;99.90;;;;;;4359995;28;657308;-73
2023/04/28 12:26:25;;;;;;;12.10;3.80;;;18.80;99.90;;;;;;4364977;28;658514;-73
2023/04/28 12:29:39;;;;;;;11.33;3.13;;;19.80;99.90;;;;;;4338754;28;658218;-73
2023/04/28 12:32:38;;;;;;;5.67;3.23;;;20.40;99.90;;;;;;4371225;28;657586;-73
2023/04/28 12:35:26;;;;;;;12.67;3.50;;;20.30;99.90;;;;;;4371051;28;656298;-73
2023/04/28 12:38:14;;;;;;;8.43;3.10;;;20.20;99.90;;;;;;4388805;28;657576;-73
2023/04/28 12:41:01;;;;;;;6.90;3.37;;;18.60;99.90;;;;;;4361758;28;656418;-72
2023/04/28 12:43:49;;;;;;;7.20;3.30;;;18.10;99.90;;;;;;4383655;28;656962;-73
2023/04/28 12:46:36;;;;;;;8.75;3.20;;;18.60;99.90;;;;;;4370055;28;656911;-73
2023/04/28 12:49:23;;;;;;;7.03;3.27;;;18.80;99.90;;;;;;4388987;28;658398;-73
2023/04/28 12:52:10;;;;;;;8.33;3.30;;;18.20;99.90;;;;;;4371317;28;656666;-73
2023/04/28 12:54:59;;;;;;;9.60;3.10;;;18.40;99.90;;;;;;4388223;28;657417;-73
2023/04/28 12:57:46;;;;;;;6.63;3.30;;;18.90;99.90;;;;;;4368642;28;656813;-73
2023/04/28 13:00:34;;;;;;;7.90;2.80;;;19.50;99.90;;;;;;4390046;28;658001;-72
2023/04/28 13:03:21;;;;;;;7.87;3.10;;;20.00;99.90;;;;;;4362347;28;656782;-72
2023/04/28 13:06:09;;;;;;;9.20;3.30;;;20.20;99.90;;;;;;4391918;28;657022;-73
2023/04/28 13:08:56;;;;;;;7.83;3.10;;;21.00;99.90;;;;;;4369121;28;656643;-73
2023/04/28 13:11:45;;;;;;;7.63;3.43;;;21.20;99.90;;;;;;4390573;28;656166;-72
2023/04/28 13:14:33;;;;;;;8.00;3.47;;;21.50;99.90;;;;;;4368043;28;657620;-73
2023/04/28 13:17:20;;;;;;;9.93;3.63;;;19.70;99.90;;;;;;4376178;28;656774;-72
2023/04/28 13:20:09;;;;;;;9.20;3.40;;;19.40;99.90;;;;;;4384688;28;657365;-73
2023/04/28 13:22:56;;;;;;;7.17;3.37;;;19.10;99.90;;;;;;4365671;28;657013;-73
2023/04/28 13:25:43;;;;;;;8.80;3.20;;;19.40;99.90;;;;;;4389751;28;657071;-72
2023/04/28 13:28:32;;;;;;;5.83;3.20;;;19.50;99.90;;;;;;4368692;28;656676;-72
2023/04/28 13:31:19;;;;;;;6.53;3.10;;;19.40;99.90;;;;;;4389383;28;656453;-71
2023/04/28 13:34:08;;;;;;;8.63;3.60;;;19.10;99.90;;;;;;4371402;28;656690;-71
2023/04/28 13:36:56;;;;;;;7.23;3.30;;;18.20;99.90;;;;;;4360865;28;656511;-72
2023/04/28 13:39:43;;;;;;;6.23;3.57;;;18.60;99.90;;;;;;4396554;28;657062;-71
2023/04/28 13:42:30;;;;;;;6.70;3.03;;;19.00;99.90;;;;;;4367298;28;657765;-72
2023/04/28 13:45:20;;;;;;;8.60;3.50;;;19.30;99.90;;;;;;4389671;28;657417;-71
2023/04/28 13:48:07;;;;;;;5.70;3.10;;;19.40;99.90;;;;;;4370566;28;657038;-72
2023/04/28 13:50:54;;;;;;;7.90;3.43;;;20.20;99.90;;;;;;4388380;28;657706;-72
2023/04/28 13:53:41;;;;;;;9.40;3.57;;;20.60;99.90;;;;;;4362263;28;657291;-71
2023/04/28 13:56:30;;;;;;;8.93;3.30;;;19.90;99.90;;;;;;4388793;28;656143;-71
2023/04/28 13:59:18;;;;;;;7.03;3.30;;;19.90;99.90;;;;;;4363637;28;656741;-72
2023/04/28 14:02:08;;;;;;;7.97;3.53;;;20.50;99.90;;;;;;4377009;28;657010;-72
2023/04/28 14:04:55;;;;;;;6.20;3.10;;;21.00;99.90;;;;;;4366517;28;656413;-72
2023/04/28 14:07:42;;;;;;;6.53;3.13;;;20.90;99.90;;;;;;4389540;28;657177;-72
2023/04/28 14:10:31;;;;;;;6.23;3.30;;;21.00;99.90;;;;;;4377674;28;658025;-72
2023/04/28 14:13:19;;;;;;;5.67;3.13;;;20.90;99.90;;;;;;4377905;28;657113;-71
2023/04/28 14:16:06;;;;;;;5.80;3.00;;;21.30;99.90;;;;;;4367759;28;656653;-72
2023/04/28 14:18:55;;;;;;;4.73;2.70;;;21.70;99.90;;;;;;4386393;28;656883;-72
2023/04/28 14:21:42;;;;;;;6.67;3.23;;;22.50;99.90;;;;;;4365634;28;657228;-71